Time;durP1;ratioP1;P1;durP2;ratioP2;P2;SDS_P1;SDS_P2;PMS_P1;PMS_P2;Temp;Humidity;BMP_temperature;BMP_pressure;BME280_temperature;BME280_humidity;BME280_pressure;Samples;Min_cycle;Max_cycle;Signal;HPM_P1;HPM_P2
2020/12/01 00:01:53;;;;;;;26.95;14.18;;;5.60;99.90;;;;;;3619910;39;20251;-73
2020/12/01 00:04:20;;;;;;;25.35;12.25;;;5.60;99.90;;;;;;3621071;39;20255;-71
2020/12/01 00:06:47;;;;;;;25.65;12.88;;;5.70;99.90;;;;;;3622023;39;20385;-74
2020/12/01 00:09:14;;;;;;;25.40;13.40;;;5.70;99.90;;;;;;3623695;39;20278;-73
2020/12/01 00:11:40;;;;;;;19.38;11.88;;;5.70;99.90;;;;;;3622774;39;20263;-74
2020/12/01 00:14:08;;;;;;;23.35;11.93;;;5.70;99.90;;;;;;3621732;39;20267;-74
2020/12/01 00:16:34;;;;;;;20.90;12.55;;;5.80;99.90;;;;;;3623328;39;20259;-72
2020/12/01 00:19:01;;;;;;;23.67;10.80;;;5.90;99.90;;;;;;3634371;39;20243;-72
2020/12/01 00:21:28;;;;;;;20.67;11.77;;;5.90;99.90;;;;;;3624716;39;20342;-72
2020/12/01 00:23:55;;;;;;;20.85;11.70;;;5.90;99.90;;;;;;3621361;39;20271;-72
2020/12/01 00:26:21;;;;;;;19.98;10.65;;;5.90;99.90;;;;;;3621916;39;20239;-75
2020/12/01 00:28:49;;;;;;;20.75;11.48;;;5.90;99.90;;;;;;3622583;39;20263;-75
2020/12/01 00:31:18;;;;;;;19.23;10.50;;;5.90;99.90;;;;;;3628436;39;20359;-72
2020/12/01 00:33:45;;;;;;;22.65;11.32;;;5.90;99.90;;;;;;3623350;39;20263;-73
2020/12/01 00:36:11;;;;;;;21.00;12.25;;;5.90;99.90;;;;;;3621777;39;20259;-73
2020/12/01 00:38:38;;;;;;;19.92;12.15;;;5.80;99.90;;;;;;3624553;39;20255;-76
2020/12/01 00:41:04;;;;;;;19.40;11.57;;;5.90;99.90;;;;;;3622265;39;20279;-73
2020/12/01 00:43:31;;;;;;;21.35;10.90;;;5.90;99.90;;;;;;3621464;39;20255;-73
2020/12/01 00:45:59;;;;;;;22.20;12.05;;;5.90;99.90;;;;;;3627608;39;20223;-73
2020/12/01 00:48:27;;;;;;;19.83;10.68;;;5.90;99.90;;;;;;3621989;39;20732;-73
2020/12/01 00:50:53;;;;;;;18.77;11.02;;;6.00;99.90;;;;;;3621584;39;20262;-73
2020/12/01 00:53:20;;;;;;;20.13;12.32;;;6.00;99.90;;;;;;3621839;39;20391;-73
2020/12/01 00:55:46;;;;;;;23.58;12.13;;;6.00;99.90;;;;;;3621711;39;20884;-73
2020/12/01 00:58:13;;;;;;;19.55;12.35;;;6.00;99.90;;;;;;3621332;39;20255;-73
2020/12/01 01:00:40;;;;;;;19.55;12.48;;;6.00;99.90;;;;;;3641231;31;20379;-73
2020/12/01 01:03:06;;;;;;;20.55;11.75;;;6.00;99.90;;;;;;3621265;39;20687;-73
2020/12/01 01:05:34;;;;;;;17.55;11.63;;;6.00;99.90;;;;;;3632826;32;20294;-73
2020/12/01 01:08:00;;;;;;;23.30;11.80;;;6.10;99.90;;;;;;3625208;39;20298;-72
2020/12/01 01:10:29;;;;;;;21.73;13.02;;;6.10;99.90;;;;;;3623470;39;20244;-73
2020/12/01 01:12:56;;;;;;;25.38;12.35;;;6.10;99.90;;;;;;3623367;39;20279;-73
2020/12/01 01:15:24;;;;;;;20.55;11.95;;;6.20;99.90;;;;;;3621328;39;20343;-73
2020/12/01 01:17:51;;;;;;;20.48;12.98;;;6.20;99.90;;;;;;3624942;39;20271;-73
2020/12/01 01:20:18;;;;;;;18.20;11.70;;;6.20;99.90;;;;;;3620831;39;20339;-73
2020/12/01 01:22:45;;;;;;;23.33;13.13;;;6.30;99.90;;;;;;3620937;39;20850;-74
2020/12/01 01:25:13;;;;;;;20.67;12.32;;;6.30;99.90;;;;;;3620037;39;20267;-74
2020/12/01 01:27:39;;;;;;;21.52;12.77;;;6.20;99.90;;;;;;3620891;39;20267;-74
2020/12/01 01:30:07;;;;;;;21.42;12.68;;;6.30;99.90;;;;;;3625186;39;20263;-74
2020/12/01 01:35:47;;;;;;;18.67;11.93;;;6.40;99.90;;;;;;3633618;32;20251;-73
2020/12/01 01:38:14;;;;;;;20.48;11.60;;;6.50;99.90;;;;;;3641630;32;20294;-73
2020/12/01 01:40:40;;;;;;;20.52;10.73;;;6.50;99.90;;;;;;3621130;39;20628;-74
2020/12/01 01:43:07;;;;;;;22.42;11.63;;;6.50;99.90;;;;;;3622532;39;20317;-73
2020/12/01 01:45:38;;;;;;;20.00;11.02;;;6.50;99.90;;;;;;3623469;39;20304;-74
2020/12/01 01:48:15;;;;;;;18.00;11.52;;;6.50;99.90;;;;;;3621206;39;20260;-74
2020/12/01 01:50:44;;;;;;;19.70;11.75;;;6.50;99.90;;;;;;3622731;39;20262;-74
2020/12/01 01:53:11;;;;;;;19.20;11.40;;;6.50;99.90;;;;;;3620895;39;20272;-74
2020/12/01 01:55:41;;;;;;;15.75;11.30;;;6.50;99.90;;;;;;3623022;39;20232;-74
2020/12/01 01:58:08;;;;;;;19.73;11.98;;;6.50;99.90;;;;;;3635630;31;20699;-74
2020/12/01 02:00:52;;;;;;;17.75;11.73;;;6.50;99.90;;;;;;3620333;39;20335;-73
2020/12/01 02:03:27;;;;;;;21.55;12.70;;;6.50;99.90;;;;;;3619964;39;20260;-73
2020/12/01 02:05:53;;;;;;;18.75;11.35;;;6.60;99.90;;;;;;3620571;39;20796;-73
2020/12/01 02:08:21;;;;;;;18.98;11.25;;;6.60;99.90;;;;;;3623175;39;20287;-73
2020/12/01 02:10:48;;;;;;;19.73;12.23;;;6.60;99.90;;;;;;3620780;39;20267;-73
2020/12/01 02:13:20;;;;;;;18.58;12.15;;;6.70;99.90;;;;;;3620757;39;20259;-73
2020/12/01 02:15:47;;;;;;;20.05;12.13;;;6.70;99.90;;;;;;3625381;39;20280;-74
2020/12/01 02:18:13;;;;;;;21.60;13.00;;;6.70;99.90;;;;;;3620524;39;20523;-73
2020/12/01 02:20:40;;;;;;;21.10;12.30;;;6.70;99.90;;;;;;3620512;39;20275;-73
2020/12/01 02:23:06;;;;;;;21.80;12.45;;;6.70;99.90;;;;;;3620829;39;20363;-73
2020/12/01 02:25:33;;;;;;;22.10;12.43;;;6.80;99.90;;;;;;3619983;39;20267;-73
2020/12/01 02:28:02;;;;;;;24.20;11.93;;;6.70;99.90;;;;;;3620003;39;20264;-73
2020/12/01 02:30:28;;;;;;;18.80;12.23;;;6.70;99.90;;;;;;3631588;31;20255;-73
2020/12/01 02:32:55;;;;;;;26.30;14.02;;;6.80;99.90;;;;;;3623007;39;20351;-74
2020/12/01 02:35:21;;;;;;;23.73;13.43;;;6.80;99.90;;;;;;3620475;39;20255;-73
2020/12/01 02:37:48;;;;;;;25.33;13.93;;;6.90;99.90;;;;;;3620359;39;20305;-73
2020/12/01 02:40:17;;;;;;;20.73;12.23;;;6.90;99.90;;;;;;3622858;39;20247;-73
2020/12/01 02:42:50;;;;;;;36.28;12.10;;;7.00;99.90;;;;;;3620136;39;20339;-73
2020/12/01 02:45:18;;;;;;;20.05;12.27;;;7.10;99.90;;;;;;3620553;39;20285;-72
2020/12/01 02:47:44;;;;;;;22.42;12.70;;;7.10;99.90;;;;;;3624447;39;20274;-73
2020/12/01 02:50:12;;;;;;;26.08;13.30;;;7.10;99.90;;;;;;3621341;39;20691;-73
2020/12/01 02:52:38;;;;;;;32.50;13.00;;;7.00;99.90;;;;;;3620479;39;20256;-72
2020/12/01 02:55:06;;;;;;;19.67;12.40;;;7.00;99.90;;;;;;3620464;39;20284;-73
2020/12/01 02:57:32;;;;;;;22.90;13.23;;;6.90;99.90;;;;;;3620623;39;20327;-73
2020/12/01 02:59:58;;;;;;;27.95;13.63;;;6.90;99.90;;;;;;3620164;39;20363;-73
2020/12/01 03:02:26;;;;;;;24.50;15.02;;;6.80;99.90;;;;;;3622555;39;20343;-74
2020/12/01 03:04:52;;;;;;;26.45;15.07;;;6.80;99.90;;;;;;3620541;39;20348;-74
2020/12/01 03:07:19;;;;;;;25.40;15.55;;;6.70;99.90;;;;;;3623751;39;20342;-74
2020/12/01 03:09:45;;;;;;;25.92;14.48;;;6.70;99.90;;;;;;3623823;39;20803;-74
2020/12/01 03:12:12;;;;;;;30.52;15.35;;;6.70;99.90;;;;;;3620114;39;20272;-74
2020/12/01 03:14:38;;;;;;;27.23;16.00;;;6.70;99.90;;;;;;3620052;39;20268;-74
2020/12/01 03:17:05;;;;;;;26.00;14.40;;;6.70;99.90;;;;;;3621482;39;20271;-73
2020/12/01 03:19:32;;;;;;;25.40;14.73;;;6.80;99.90;;;;;;3619873;39;20247;-74
2020/12/01 03:21:58;;;;;;;26.77;15.00;;;6.80;99.90;;;;;;3620532;39;20405;-74
2020/12/01 03:24:25;;;;;;;27.85;14.70;;;6.70;99.90;;;;;;3620004;39;20371;-74
2020/12/01 03:26:51;;;;;;;27.02;15.75;;;6.80;99.90;;;;;;3621467;39;20359;-73
2020/12/01 03:29:18;;;;;;;28.00;14.77;;;6.80;99.90;;;;;;3622471;39;20363;-74
2020/12/01 03:31:44;;;;;;;28.65;15.55;;;6.80;99.90;;;;;;3620595;39;20259;-74
2020/12/01 03:34:11;;;;;;;25.80;15.63;;;6.80;99.90;;;;;;3631038;31;20343;-73
2020/12/01 03:36:39;;;;;;;26.23;16.92;;;6.80;99.90;;;;;;3620675;39;20321;-74
2020/12/01 03:39:05;;;;;;;27.50;15.52;;;6.80;99.90;;;;;;3620312;39;20255;-74
2020/12/01 03:41:33;;;;;;;31.02;16.15;;;6.90;99.90;;;;;;3620383;39;20331;-73
2020/12/01 03:44:00;;;;;;;23.60;15.32;;;6.90;99.90;;;;;;3620059;39;20275;-73
2020/12/01 03:46:26;;;;;;;22.23;13.30;;;7.00;99.90;;;;;;3623682;39;20796;-74
2020/12/01 03:48:53;;;;;;;24.85;13.68;;;7.10;99.90;;;;;;3648231;31;20661;-74
2020/12/01 03:51:19;;;;;;;37.35;14.77;;;7.20;99.90;;;;;;3623202;39;20374;-74
2020/12/01 03:53:46;;;;;;;24.10;13.57;;;7.20;99.90;;;;;;3623892;39;20768;-74
2020/12/01 03:56:13;;;;;;;23.95;14.07;;;7.20;99.90;;;;;;3621930;39;20300;-74
2020/12/01 03:58:41;;;;;;;24.50;15.68;;;7.20;99.90;;;;;;3624942;39;20344;-74
2020/12/01 04:01:07;;;;;;;24.70;14.43;;;7.20;99.90;;;;;;3625375;39;20255;-76
2020/12/01 04:03:33;;;;;;;21.48;14.02;;;7.10;99.90;;;;;;3621741;39;20267;-74
2020/12/01 04:06:00;;;;;;;24.25;14.90;;;7.10;99.90;;;;;;3623144;39;20335;-74
2020/12/01 04:08:26;;;;;;;29.25;13.20;;;7.10;99.90;;;;;;3623954;39;20336;-74
2020/12/01 04:10:54;;;;;;;27.58;15.85;;;7.20;99.90;;;;;;3625981;39;20259;-74
2020/12/01 04:13:20;;;;;;;29.75;15.85;;;7.20;99.90;;;;;;3623723;39;20279;-74
2020/12/01 04:15:47;;;;;;;28.95;15.48;;;7.20;99.90;;;;;;3622602;31;20251;-74
2020/12/01 04:18:14;;;;;;;23.08;15.43;;;7.20;99.90;;;;;;3624968;39;20271;-74
2020/12/01 04:20:41;;;;;;;30.15;15.93;;;7.20;99.90;;;;;;3622575;39;20323;-74
2020/12/01 04:23:08;;;;;;;22.67;14.02;;;7.20;99.90;;;;;;3621471;39;20335;-74
2020/12/01 04:25:34;;;;;;;27.60;15.48;;;7.20;99.90;;;;;;3629827;31;20882;-74
2020/12/01 04:28:05;;;;;;;27.17;13.98;;;7.20;99.90;;;;;;3621234;39;20274;-74
2020/12/01 04:30:31;;;;;;;25.13;14.43;;;7.20;99.90;;;;;;3624748;39;20274;-74
2020/12/01 04:32:58;;;;;;;23.77;14.57;;;7.20;99.90;;;;;;3621996;39;20368;-74
2020/12/01 04:35:25;;;;;;;25.55;15.27;;;7.20;99.90;;;;;;3622284;39;20343;-74
2020/12/01 04:37:53;;;;;;;25.08;15.18;;;7.20;99.90;;;;;;3621611;39;20306;-74
2020/12/01 04:40:23;;;;;;;25.50;15.55;;;7.30;99.90;;;;;;3624222;39;20255;-73
2020/12/01 04:42:52;;;;;;;24.60;14.32;;;7.30;99.90;;;;;;3625420;39;20247;-74
2020/12/01 04:45:21;;;;;;;23.17;14.30;;;7.30;99.90;;;;;;3620490;39;20291;-74
2020/12/01 04:47:57;;;;;;;27.70;16.02;;;7.40;99.90;;;;;;3622281;39;20236;-74
2020/12/01 04:50:33;;;;;;;27.30;15.13;;;7.40;99.90;;;;;;3622868;39;20287;-74
2020/12/01 04:53:25;;;;;;;27.38;15.82;;;7.30;99.90;;;;;;3626628;32;20540;-73
2020/12/01 04:56:24;;;;;;;26.00;15.35;;;7.30;99.90;;;;;;3622244;39;20339;-73
2020/12/01 04:59:04;;;;;;;26.67;15.32;;;7.30;99.90;;;;;;3622138;31;20270;-74
2020/12/01 05:02:22;;;;;;;30.88;16.00;;;7.40;99.90;;;;;;3624057;39;20283;-74
2020/12/01 05:05:02;;;;;;;22.90;14.82;;;7.40;99.90;;;;;;3588241;40;20824;-73
2020/12/01 05:07:42;;;;;;;27.10;14.80;;;7.50;99.90;;;;;;3593432;40;20799;-73
2020/12/01 05:10:13;;;;;;;25.92;15.15;;;7.40;99.90;;;;;;3588296;40;20253;-74
2020/12/01 05:12:43;;;;;;;23.60;14.98;;;7.40;99.90;;;;;;3589776;40;20261;-74
2020/12/01 05:15:16;;;;;;;26.73;14.88;;;7.40;99.90;;;;;;3589763;40;20274;-75
2020/12/01 05:18:17;;;;;;;23.10;14.93;;;7.40;99.90;;;;;;3588181;40;20271;-75
2020/12/01 05:20:48;;;;;;;24.50;14.25;;;7.50;99.90;;;;;;3578846;40;20297;-75
2020/12/01 05:23:18;;;;;;;25.38;14.73;;;7.40;99.90;;;;;;3580211;40;20297;-74
2020/12/01 05:25:44;;;;;;;26.60;15.70;;;7.40;99.90;;;;;;3580912;40;20261;-73
2020/12/01 05:28:13;;;;;;;27.20;14.80;;;7.40;99.90;;;;;;3613230;32;20263;-74
2020/12/01 05:30:41;;;;;;;26.23;15.50;;;7.50;99.90;;;;;;3577946;40;20265;-73
2020/12/01 05:33:20;;;;;;;22.17;14.32;;;7.50;99.90;;;;;;3580615;40;20415;-73
2020/12/01 05:36:02;;;;;;;25.77;15.10;;;7.50;99.90;;;;;;3602457;39;20685;-73
2020/12/01 05:38:30;;;;;;;31.48;15.43;;;7.50;99.90;;;;;;3610442;39;20359;-74
2020/12/01 05:41:00;;;;;;;28.60;15.30;;;7.50;99.90;;;;;;3610896;39;20360;-73
2020/12/01 05:43:34;;;;;;;27.65;14.82;;;7.50;99.90;;;;;;3610052;39;20360;-73
2020/12/01 05:46:18;;;;;;;28.75;14.90;;;7.50;99.90;;;;;;3610818;39;20286;-73
2020/12/01 05:49:00;;;;;;;27.52;15.32;;;7.50;99.90;;;;;;3613412;39;20273;-73
2020/12/01 05:51:36;;;;;;;27.23;15.43;;;7.50;99.90;;;;;;3612927;39;20352;-73
2020/12/01 05:54:03;;;;;;;30.52;14.60;;;7.50;99.90;;;;;;3614764;32;20263;-73
2020/12/01 05:56:29;;;;;;;24.83;14.52;;;7.50;99.90;;;;;;3610481;39;20379;-73
2020/12/01 05:59:03;;;;;;;25.20;14.60;;;7.50;99.90;;;;;;3613614;39;20359;-73
2020/12/01 06:01:40;;;;;;;24.58;14.13;;;7.50;99.90;;;;;;3612224;39;20263;-73
2020/12/01 06:04:11;;;;;;;23.60;14.75;;;7.50;99.90;;;;;;3610567;39;20273;-73
2020/12/01 06:07:06;;;;;;;24.05;14.85;;;7.50;99.90;;;;;;3615247;39;20284;-73
2020/12/01 06:10:00;;;;;;;21.17;14.05;;;7.60;99.90;;;;;;3609769;39;20255;-73
2020/12/01 06:12:57;;;;;;;23.33;13.77;;;7.60;99.90;;;;;;3610700;39;20263;-73
2020/12/01 06:15:24;;;;;;;23.65;14.25;;;7.60;99.90;;;;;;3613304;39;20757;-73
2020/12/01 06:17:56;;;;;;;25.70;14.52;;;7.60;99.90;;;;;;3611125;39;20301;-73
2020/12/01 06:20:29;;;;;;;22.58;12.13;;;7.60;99.90;;;;;;3610107;39;20360;-73
2020/12/01 06:23:42;;;;;;;19.77;14.05;;;7.60;99.90;;;;;;3615093;39;20340;-73
2020/12/01 06:26:46;;;;;;;23.10;13.30;;;7.70;99.90;;;;;;3604301;39;20265;-74
2020/12/01 06:29:55;;;;;;;25.55;13.82;;;7.70;99.90;;;;;;3609759;39;20255;-74
2020/12/01 06:33:00;;;;;;;22.85;12.95;;;7.80;99.90;;;;;;3610980;39;20280;-74
2020/12/01 06:36:11;;;;;;;27.02;13.80;;;7.80;99.90;;;;;;3608990;39;20256;-74
2020/12/01 06:38:54;;;;;;;26.15;14.07;;;7.80;99.90;;;;;;3560345;40;20260;-74
2020/12/01 06:41:23;;;;;;;21.75;13.63;;;7.90;99.90;;;;;;3586632;40;20272;-74
2020/12/01 06:43:54;;;;;;;21.10;13.35;;;7.90;99.90;;;;;;3586789;40;20413;-75
2020/12/01 06:46:38;;;;;;;20.98;13.93;;;7.90;99.90;;;;;;3586355;40;20253;-74
2020/12/01 06:49:08;;;;;;;21.23;13.60;;;7.90;99.90;;;;;;3586839;40;20300;-74
2020/12/01 06:51:36;;;;;;;23.08;11.90;;;7.90;99.90;;;;;;3605661;32;20360;-74
2020/12/01 06:54:08;;;;;;;21.75;13.48;;;7.90;99.90;;;;;;3582221;40;20357;-74
2020/12/01 06:56:35;;;;;;;22.30;13.27;;;7.90;99.90;;;;;;3586132;40;20256;-74
2020/12/01 06:59:08;;;;;;;21.45;13.02;;;7.90;99.90;;;;;;3584150;40;20280;-74
2020/12/01 07:01:36;;;;;;;18.95;12.60;;;7.90;99.90;;;;;;3586199;40;20343;-74
2020/12/01 07:04:22;;;;;;;27.77;15.50;;;7.80;99.90;;;;;;3592219;32;20252;-74
2020/12/01 07:06:51;;;;;;;25.15;13.85;;;7.80;99.90;;;;;;3581065;40;20245;-74
2020/12/01 07:09:22;;;;;;;27.85;16.55;;;7.80;99.90;;;;;;3582550;40;20145;-74
2020/12/01 07:12:03;;;;;;;25.42;13.57;;;7.80;99.90;;;;;;3593583;39;20265;-74
2020/12/01 07:14:38;;;;;;;25.63;12.65;;;7.90;99.90;;;;;;3616252;39;20848;-78
2020/12/01 07:17:24;;;;;;;20.95;13.15;;;7.80;99.90;;;;;;3620173;32;20243;-75
2020/12/01 07:19:55;;;;;;;25.38;12.70;;;7.80;99.90;;;;;;3612949;39;20260;-75
2020/12/01 07:22:34;;;;;;;23.83;11.60;;;7.80;99.90;;;;;;3614375;39;20257;-75
2020/12/01 07:25:10;;;;;;;16.48;11.43;;;7.90;99.90;;;;;;3615776;32;20284;-75
2020/12/01 07:27:51;;;;;;;21.48;11.15;;;7.90;99.90;;;;;;3616291;32;20271;-75
2020/12/01 07:30:21;;;;;;;19.27;11.13;;;7.90;99.90;;;;;;3612055;39;20252;-78
2020/12/01 07:33:15;;;;;;;26.40;11.63;;;8.00;99.90;;;;;;3614437;39;20208;-76
2020/12/01 07:35:46;;;;;;;20.52;12.70;;;8.00;99.90;;;;;;3612074;39;20391;-75
2020/12/01 07:41:52;;;;;;;18.20;11.00;;;8.10;99.90;;;;;;3616658;32;20275;-76
2020/12/01 07:44:21;;;;;;;22.42;11.55;;;8.10;99.90;;;;;;3611790;39;20284;-76
2020/12/01 07:47:00;;;;;;;16.75;10.68;;;8.10;99.90;;;;;;3611801;39;20368;-75
2020/12/01 07:49:28;;;;;;;23.83;11.32;;;8.10;99.90;;;;;;3640715;32;20360;-77
2020/12/01 07:52:02;;;;;;;18.40;10.52;;;8.20;99.90;;;;;;3611667;39;20264;-75
2020/12/01 07:54:28;;;;;;;28.40;11.10;;;8.20;99.90;;;;;;3612010;39;20271;-75
2020/12/01 07:56:56;;;;;;;20.20;10.90;;;8.20;99.90;;;;;;3613086;39;20281;-75
2020/12/01 07:59:23;;;;;;;17.67;11.02;;;8.20;99.90;;;;;;3618398;32;20356;-75
2020/12/01 08:01:50;;;;;;;14.45;9.38;;;8.20;99.90;;;;;;3611941;39;20373;-75
2020/12/01 08:04:18;;;;;;;23.73;13.15;;;8.20;99.90;;;;;;3615250;39;20356;-75
2020/12/01 08:06:45;;;;;;;18.70;10.50;;;8.20;99.90;;;;;;3611994;39;20259;-75
2020/12/01 08:09:21;;;;;;;20.02;10.52;;;8.20;99.90;;;;;;3611634;39;20267;-75
2020/12/01 08:11:49;;;;;;;17.73;10.43;;;8.30;99.90;;;;;;3617148;39;20343;-75
2020/12/01 08:14:17;;;;;;;28.65;12.80;;;8.30;99.90;;;;;;3612101;39;20344;-75
2020/12/01 08:17:01;;;;;;;28.23;10.30;;;8.20;99.90;;;;;;3612601;39;20260;-75
2020/12/01 08:19:28;;;;;;;22.77;9.77;;;8.20;99.90;;;;;;3613667;39;20279;-75
2020/12/01 08:21:56;;;;;;;31.50;11.65;;;8.20;99.90;;;;;;3613816;39;20271;-75
2020/12/01 08:24:25;;;;;;;21.08;9.57;;;8.30;99.90;;;;;;3612051;39;20792;-76
2020/12/01 08:27:04;;;;;;;18.23;10.30;;;8.30;99.90;;;;;;3631910;32;20285;-75
2020/12/01 08:29:33;;;;;;;22.88;9.55;;;8.40;99.90;;;;;;3619231;32;20366;-75
2020/12/01 08:32:11;;;;;;;23.38;9.35;;;8.40;99.90;;;;;;3614732;39;20351;-76
2020/12/01 08:34:44;;;;;;;19.10;10.45;;;8.30;99.90;;;;;;3611065;39;20344;-75
2020/12/01 08:37:22;;;;;;;21.15;10.60;;;8.40;99.90;;;;;;3614755;39;20248;-75
2020/12/01 08:39:55;;;;;;;14.85;10.25;;;8.40;99.90;;;;;;3617514;39;22734;-76
2020/12/01 08:42:37;;;;;;;20.40;9.48;;;8.50;99.90;;;;;;3611379;39;20277;-76
2020/12/01 08:45:36;;;;;;;15.82;8.88;;;8.50;99.90;;;;;;3614858;39;20431;-75
2020/12/01 08:48:07;;;;;;;22.50;9.00;;;8.60;99.90;;;;;;3614496;39;20267;-75
2020/12/01 08:50:37;;;;;;;17.73;8.65;;;8.70;99.90;;;;;;3614304;39;20252;-75
2020/12/01 08:53:07;;;;;;;18.58;8.13;;;8.80;99.90;;;;;;3610950;39;20287;-76
2020/12/01 08:55:38;;;;;;;14.20;8.55;;;8.90;99.90;;;;;;3613083;39;20248;-76
2020/12/01 08:58:14;;;;;;;18.67;9.00;;;9.00;99.90;;;;;;3611567;39;20379;-75
2020/12/01 09:00:58;;;;;;;15.73;8.07;;;9.10;99.90;;;;;;3611237;39;20303;-75
2020/12/01 09:03:26;;;;;;;19.48;8.95;;;9.10;99.90;;;;;;3611260;39;20272;-76
2020/12/01 09:05:53;;;;;;;17.38;9.90;;;9.30;99.90;;;;;;3610864;39;20259;-76
2020/12/01 09:08:39;;;;;;;28.80;9.77;;;9.30;99.90;;;;;;3618443;32;20981;-75
2020/12/01 09:14:02;;;;;;;21.13;8.38;;;9.50;99.90;;;;;;3620884;32;20282;-76
2020/12/01 09:16:39;;;;;;;16.52;8.40;;;9.50;99.90;;;;;;3612356;39;20248;-75
2020/12/01 09:19:33;;;;;;;14.57;8.20;;;9.50;99.90;;;;;;3621066;32;20255;-76
2020/12/01 09:22:07;;;;;;;17.23;8.88;;;9.50;99.90;;;;;;3619855;32;20260;-75
2020/12/01 09:24:34;;;;;;;36.28;9.73;;;9.40;99.90;;;;;;3616331;39;20266;-76
2020/12/01 09:27:03;;;;;;;24.77;8.02;;;9.40;99.90;;;;;;3611448;39;20275;-76
2020/12/01 09:29:30;;;;;;;24.60;9.45;;;9.40;99.90;;;;;;3611193;39;20286;-76
2020/12/01 09:31:57;;;;;;;26.55;9.35;;;9.40;99.90;;;;;;3614648;39;20259;-76
2020/12/01 09:34:25;;;;;;;19.15;10.15;;;9.50;99.90;;;;;;3610649;39;20279;-76
2020/12/01 09:36:57;;;;;;;18.27;9.25;;;9.60;99.90;;;;;;3614012;39;20281;-76
2020/12/01 09:39:24;;;;;;;15.30;8.90;;;9.60;99.90;;;;;;3615811;32;20596;-76
2020/12/01 09:41:59;;;;;;;22.00;9.85;;;9.60;99.90;;;;;;3610212;39;20356;-76
2020/12/01 09:44:44;;;;;;;19.58;9.00;;;9.60;99.90;;;;;;3613830;32;20814;-76
2020/12/01 09:47:14;;;;;;;18.13;9.65;;;9.60;99.90;;;;;;3615391;39;20330;-76
2020/12/01 09:49:42;;;;;;;18.05;8.65;;;9.60;99.90;;;;;;3640123;32;20252;-76
2020/12/01 09:52:12;;;;;;;23.23;7.93;;;9.70;99.90;;;;;;3615935;39;20263;-75
2020/12/01 09:54:45;;;;;;;19.65;8.32;;;9.70;99.90;;;;;;3612392;39;20271;-75
2020/12/01 09:57:15;;;;;;;20.02;8.75;;;9.60;99.90;;;;;;3616160;32;20287;-75
2020/12/01 10:00:09;;;;;;;13.45;7.20;;;9.50;99.90;;;;;;3620325;39;20337;-75
2020/12/01 10:03:00;;;;;;;12.30;6.40;;;9.50;99.90;;;;;;3617046;39;20259;-76
2020/12/01 10:08:21;;;;;;;12.45;7.68;;;9.40;99.90;;;;;;3620502;32;20266;-77
2020/12/01 10:11:04;;;;;;;8.40;4.80;;;9.30;99.90;;;;;;3615442;39;20251;-78
2020/12/01 10:35:34;;;;;;;11.80;6.38;;;9.00;99.90;;;;;;3612390;32;20282;-77
2020/12/01 10:38:02;;;;;;;9.07;6.68;;;9.10;99.90;;;;;;3612302;39;20356;-77
2020/12/01 10:40:30;;;;;;;10.55;6.07;;;9.10;99.90;;;;;;3613716;39;20286;-77
2020/12/01 10:42:57;;;;;;;12.18;6.03;;;9.10;99.90;;;;;;3610904;39;20258;-77
2020/12/01 10:45:26;;;;;;;7.68;6.53;;;9.20;99.90;;;;;;3618279;39;20263;-77
2020/12/01 10:47:53;;;;;;;10.77;6.68;;;9.10;99.90;;;;;;3611253;39;20299;-78
2020/12/01 10:50:32;;;;;;;8.80;7.75;;;9.20;99.90;;;;;;3629618;32;20229;-78
2020/12/01 10:55:40;;;;;;;12.98;7.85;;;9.30;99.90;;;;;;3616124;32;20274;-77
2020/12/01 10:58:06;;;;;;;12.15;7.65;;;9.40;99.90;;;;;;3609897;39;20280;-77
2020/12/01 11:00:33;;;;;;;10.98;7.07;;;9.40;99.90;;;;;;3610520;39;20260;-77
2020/12/01 11:08:18;;;;;;;12.82;9.27;;;9.60;99.90;;;;;;3653801;31;20263;-80
2020/12/01 11:10:45;;;;;;;10.82;7.82;;;9.60;99.90;;;;;;3650265;39;20274;-79
2020/12/01 11:13:11;;;;;;;10.52;8.20;;;9.60;99.90;;;;;;3648423;39;20356;-80
2020/12/01 11:15:39;;;;;;;39.58;26.25;;;9.60;99.90;;;;;;3643490;39;20271;-79
2020/12/01 11:18:06;;;;;;;13.95;11.27;;;9.70;99.90;;;;;;3643959;39;20251;-79
2020/12/01 11:20:33;;;;;;;11.90;8.20;;;9.70;99.90;;;;;;3649825;39;20929;-81
2020/12/01 11:25:56;;;;;;;10.55;8.15;;;9.80;99.90;;;;;;3676923;31;20283;-82
2020/12/01 11:28:23;;;;;;;11.55;9.13;;;9.80;99.90;;;;;;3658351;31;20281;-80
2020/12/01 11:30:50;;;;;;;10.55;8.57;;;9.80;99.90;;;;;;3649612;39;20342;-80
2020/12/01 11:33:16;;;;;;;13.02;9.75;;;9.90;99.90;;;;;;3644269;39;20247;-81
2020/12/01 11:35:43;;;;;;;13.18;10.00;;;9.90;99.90;;;;;;3645308;39;20280;-80
2020/12/01 11:38:09;;;;;;;14.95;11.35;;;9.90;99.90;;;;;;3646921;39;20287;-80
2020/12/01 11:40:36;;;;;;;15.32;11.00;;;9.80;99.90;;;;;;3643782;39;20263;-79
2020/12/01 11:43:03;;;;;;;12.98;9.45;;;9.70;99.90;;;;;;3648496;39;20343;-79
2020/12/01 11:45:33;;;;;;;15.05;9.85;;;9.80;99.90;;;;;;3644008;39;20252;-80
2020/12/01 11:47:59;;;;;;;16.92;10.75;;;9.80;99.90;;;;;;3648852;31;20266;-78
2020/12/01 11:50:26;;;;;;;16.58;10.32;;;9.80;99.90;;;;;;3648349;39;20265;-78
2020/12/01 11:52:52;;;;;;;17.58;11.68;;;9.80;99.90;;;;;;3647526;39;20287;-79
2020/12/01 11:55:19;;;;;;;16.77;10.98;;;9.80;99.90;;;;;;3644366;39;20267;-79
2020/12/01 11:57:46;;;;;;;20.90;11.98;;;9.80;99.90;;;;;;3646079;39;20332;-80
2020/12/01 12:00:18;;;;;;;22.42;13.48;;;10.00;99.90;;;;;;3646890;39;20250;-80
2020/12/01 12:02:45;;;;;;;16.98;10.70;;;10.00;99.90;;;;;;3643811;39;20413;-80
2020/12/01 12:05:11;;;;;;;19.60;11.88;;;10.00;99.90;;;;;;3646824;39;20774;-80
2020/12/01 12:07:41;;;;;;;23.92;13.60;;;10.10;99.90;;;;;;3645058;39;20332;-80
2020/12/01 12:10:07;;;;;;;18.25;12.20;;;10.10;99.90;;;;;;3644605;39;20332;-79
2020/12/01 12:12:34;;;;;;;16.27;12.48;;;10.10;99.90;;;;;;3646576;39;20220;-80
2020/12/01 12:15:17;;;;;;;17.00;11.23;;;10.20;99.90;;;;;;3647954;39;20295;-79
2020/12/01 12:21:05;;;;;;;14.00;8.95;;;10.20;99.90;;;;;;3634455;39;20279;-77
2020/12/01 12:23:39;;;;;;;12.90;7.95;;;10.10;99.90;;;;;;3634354;39;20251;-77
2020/12/01 12:26:25;;;;;;;18.10;7.18;;;9.90;99.90;;;;;;3636117;39;20266;-77
2020/12/01 12:28:52;;;;;;;13.18;8.05;;;9.80;99.90;;;;;;3637424;39;20771;-77
2020/12/01 12:31:36;;;;;;;13.45;7.90;;;9.80;99.90;;;;;;3636755;31;20297;-77
2020/12/01 12:34:23;;;;;;;20.27;8.70;;;9.70;99.90;;;;;;3633142;39;20280;-77
2020/12/01 12:36:50;;;;;;;22.73;10.85;;;9.60;99.90;;;;;;3634714;39;20281;-77
2020/12/01 12:39:16;;;;;;;20.73;9.95;;;9.60;99.90;;;;;;3632285;39;20257;-77
2020/12/01 12:41:43;;;;;;;17.77;10.00;;;9.50;99.90;;;;;;3631404;39;20289;-77
2020/12/01 12:44:09;;;;;;;17.58;7.70;;;9.50;99.90;;;;;;3633749;39;20295;-77
2020/12/01 12:46:37;;;;;;;10.88;6.97;;;9.40;99.90;;;;;;3636812;39;20298;-77
2020/12/01 12:49:05;;;;;;;10.55;4.45;;;9.50;99.90;;;;;;3632938;31;20286;-77
2020/12/01 12:51:31;;;;;;;7.53;4.00;;;9.40;99.90;;;;;;3634863;39;20352;-77
2020/12/01 12:53:58;;;;;;;10.32;3.90;;;9.40;99.90;;;;;;3636307;39;20359;-77
2020/12/01 12:56:25;;;;;;;11.02;4.00;;;9.40;99.90;;;;;;3635269;39;20261;-77
2020/12/01 12:58:52;;;;;;;9.73;3.45;;;9.40;99.90;;;;;;3634605;39;20815;-77
2020/12/01 13:01:19;;;;;;;10.40;3.30;;;9.40;99.90;;;;;;3635770;39;20435;-76
2020/12/01 13:03:45;;;;;;;9.80;3.13;;;9.50;99.90;;;;;;3634638;39;20747;-77
2020/12/01 13:06:13;;;;;;;9.32;3.70;;;9.50;99.90;;;;;;3634500;39;20268;-77
2020/12/01 13:08:39;;;;;;;8.27;2.95;;;9.40;99.90;;;;;;3636267;32;20272;-77
2020/12/01 13:11:07;;;;;;;12.13;3.75;;;9.50;99.90;;;;;;3636479;39;20253;-77
2020/12/01 13:13:33;;;;;;;7.20;3.50;;;9.50;99.90;;;;;;3634251;39;20283;-77
2020/12/01 13:16:00;;;;;;;10.70;4.13;;;9.60;99.90;;;;;;3654135;31;20253;-77
2020/12/01 13:18:26;;;;;;;12.07;4.50;;;9.50;99.90;;;;;;3630643;39;20364;-77
2020/12/01 13:20:53;;;;;;;10.50;4.07;;;9.60;99.90;;;;;;3634394;39;20264;-77
2020/12/01 13:23:20;;;;;;;10.02;3.78;;;9.60;99.90;;;;;;3631310;39;20276;-80
2020/12/01 13:25:47;;;;;;;9.50;4.43;;;9.60;99.90;;;;;;3649289;31;20698;-79
2020/12/01 13:28:14;;;;;;;12.32;4.80;;;9.60;99.90;;;;;;3639775;39;20277;-79
2020/12/01 13:30:40;;;;;;;12.20;4.53;;;9.60;99.90;;;;;;3638664;39;20276;-78
2020/12/01 13:33:07;;;;;;;10.07;4.40;;;9.60;99.90;;;;;;3637202;39;20257;-78
2020/12/01 13:35:33;;;;;;;6.53;3.75;;;9.40;99.90;;;;;;3636948;39;20276;-80
2020/12/01 13:38:00;;;;;;;15.32;4.82;;;9.40;99.90;;;;;;3639444;39;20347;-80
2020/12/01 13:40:43;;;;;;;7.10;3.95;;;9.40;99.90;;;;;;3638046;39;20904;-80
2020/12/01 13:43:10;;;;;;;8.55;3.60;;;9.30;99.90;;;;;;3637515;39;20280;-80
2020/12/01 13:48:37;;;;;;;6.45;4.13;;;9.40;99.90;;;;;;3639973;31;20235;-78
2020/12/01 13:51:40;;;;;;;8.80;3.90;;;9.40;99.90;;;;;;3638117;39;20257;-78
2020/12/01 13:54:26;;;;;;;9.02;4.15;;;9.40;99.90;;;;;;3640185;39;20374;-78